Time;durP1;ratioP1;P1;durP2;ratioP2;P2;SDS_P1;SDS_P2;PMS_P1;PMS_P2;Temp;Humidity;BMP_temperature;BMP_pressure;BME280_temperature;BME280_humidity;BME280_pressure;Samples;Min_cycle;Max_cycle;Signal;HPM_P1;HPM_P2
2023/01/19 00:00:32;;;;;;;;;17.50;13.75;;;;;;;;4919569;28;45422;-78
2023/01/19 00:02:57;;;;;;;;;17.50;14.25;;;;;;;;4919768;28;45398;-78
2023/01/19 00:05:22;;;;;;;;;15.00;11.75;;;;;;;;4919632;28;45509;-78
2023/01/19 00:07:47;;;;;;;;;10.25;10.25;;;;;;;;4918773;28;45385;-79
2023/01/19 00:10:13;;;;;;;;;14.00;14.00;;;;;;;;4919045;28;45346;-78
2023/01/19 00:12:38;;;;;;;;;14.75;13.75;;;;;;;;4918907;28;45490;-79
2023/01/19 00:15:03;;;;;;;;;15.25;15.00;;;;;;;;4916909;28;45391;-78
2023/01/19 00:17:28;;;;;;;;;15.50;14.50;;;;;;;;4918685;28;46371;-79
2023/01/19 00:19:54;;;;;;;;;12.25;11.00;;;;;;;;4918665;28;45840;-79
2023/01/19 00:22:19;;;;;;;;;7.75;6.75;;;;;;;;4918573;28;45389;-78
2023/01/19 00:24:44;;;;;;;;;18.25;13.00;;;;;;;;4918707;28;45330;-79
2023/01/19 00:27:10;;;;;;;;;12.50;12.50;;;;;;;;4918635;28;47147;-79
2023/01/19 00:29:35;;;;;;;;;17.50;12.50;;;;;;;;4918581;28;45524;-78
2023/01/19 00:32:00;;;;;;;;;11.75;11.75;;;;;;;;4915718;28;45350;-78
2023/01/19 00:34:26;;;;;;;;;14.00;13.00;;;;;;;;4907310;28;45665;-78
2023/01/19 00:36:51;;;;;;;;;21.50;14.50;;;;;;;;4908558;28;46161;-78
2023/01/19 00:39:16;;;;;;;;;13.25;13.00;;;;;;;;4906119;28;45379;-79
2023/01/19 00:44:25;;;;;;;;;15.25;12.50;;;;;;;;4906021;28;45674;-78
2023/01/19 00:46:50;;;;;;;;;11.25;11.00;;;;;;;;4907935;28;45461;-78
2023/01/19 00:49:15;;;;;;;;;13.25;12.25;;;;;;;;4909166;28;45298;-78
2023/01/19 00:51:41;;;;;;;;;13.25;13.25;;;;;;;;4909203;28;45509;-78
2023/01/19 00:54:09;;;;;;;;;13.25;13.25;;;;;;;;4908076;28;45391;-78
2023/01/19 00:56:34;;;;;;;;;11.75;11.00;;;;;;;;4907423;28;46041;-79
2023/01/19 00:59:00;;;;;;;;;12.75;11.00;;;;;;;;4908893;28;45382;-79
2023/01/19 01:01:25;;;;;;;;;15.50;14.00;;;;;;;;4907742;28;45425;-77
2023/01/19 01:03:52;;;;;;;;;15.25;11.00;;;;;;;;4908031;28;45535;-79
2023/01/19 01:06:17;;;;;;;;;11.25;9.75;;;;;;;;4908839;28;45359;-78
2023/01/19 01:08:42;;;;;;;;;14.50;10.00;;;;;;;;4907212;28;45359;-77
2023/01/19 01:11:07;;;;;;;;;14.50;11.25;;;;;;;;4907167;28;45303;-78
2023/01/19 01:13:33;;;;;;;;;14.75;11.75;;;;;;;;4907740;28;45267;-80
2023/01/19 01:15:58;;;;;;;;;12.00;10.75;;;;;;;;4906336;28;46008;-79
2023/01/19 01:18:23;;;;;;;;;19.75;14.25;;;;;;;;4906971;28;45488;-78
2023/01/19 01:20:49;;;;;;;;;13.25;11.75;;;;;;;;4907981;28;45361;-77
2023/01/19 01:23:14;;;;;;;;;14.50;14.00;;;;;;;;4908655;28;45367;-79
2023/01/19 01:25:39;;;;;;;;;15.00;12.00;;;;;;;;4905216;28;47471;-80
2023/01/19 01:28:07;;;;;;;;;14.75;12.00;;;;;;;;4913932;28;45413;-80
2023/01/19 01:30:33;;;;;;;;;11.50;10.00;;;;;;;;4914485;28;45477;-79
2023/01/19 01:32:58;;;;;;;;;15.50;11.50;;;;;;;;4911525;28;45584;-80
2023/01/19 01:35:23;;;;;;;;;11.75;11.50;;;;;;;;4913313;28;47180;-79
2023/01/19 01:37:48;;;;;;;;;12.75;12.75;;;;;;;;4913866;28;45446;-79
2023/01/19 01:40:15;;;;;;;;;15.50;12.50;;;;;;;;4913189;28;45426;-79
2023/01/19 01:42:41;;;;;;;;;13.50;11.00;;;;;;;;4914977;28;45436;-79
2023/01/19 01:45:22;;;;;;;;;16.00;16.00;;;;;;;;4913211;28;46204;-78
2023/01/19 01:47:48;;;;;;;;;16.00;15.00;;;;;;;;4912331;28;45454;-78
2023/01/19 01:50:21;;;;;;;;;13.00;8.50;;;;;;;;4914399;28;45474;-78
2023/01/19 01:52:49;;;;;;;;;15.50;12.00;;;;;;;;4913973;28;45481;-78
2023/01/19 01:55:14;;;;;;;;;15.00;10.50;;;;;;;;4912910;28;47346;-78
2023/01/19 01:57:45;;;;;;;;;14.50;14.50;;;;;;;;4913132;28;45458;-79
2023/01/19 02:00:11;;;;;;;;;14.00;12.50;;;;;;;;4913881;28;45428;-77
2023/01/19 02:02:53;;;;;;;;;12.50;10.00;;;;;;;;4912696;28;45363;-77
2023/01/19 02:05:25;;;;;;;;;12.75;11.75;;;;;;;;4913895;28;45585;-77
2023/01/19 02:13:24;;;;;;;;;17.50;13.50;;;;;;;;4914245;28;45366;-77
2023/01/19 02:15:51;;;;;;;;;14.25;12.50;;;;;;;;4913527;28;45769;-77
2023/01/19 02:18:17;;;;;;;;;15.25;12.75;;;;;;;;4912200;28;45504;-76
2023/01/19 02:20:46;;;;;;;;;22.00;15.25;;;;;;;;4910984;28;45278;-77
2023/01/19 02:23:15;;;;;;;;;16.25;14.00;;;;;;;;4912675;28;45289;-77
2023/01/19 02:25:40;;;;;;;;;17.00;15.25;;;;;;;;4914145;28;45585;-77
2023/01/19 02:28:06;;;;;;;;;11.75;11.75;;;;;;;;4912919;28;45339;-78
2023/01/19 02:30:32;;;;;;;;;5.75;5.50;;;;;;;;4913007;28;45649;-78
2023/01/19 02:32:57;;;;;;;;;11.75;11.75;;;;;;;;4914272;28;45558;-77
2023/01/19 02:35:23;;;;;;;;;13.50;11.00;;;;;;;;4912833;28;47504;-77
2023/01/19 02:37:49;;;;;;;;;10.75;9.75;;;;;;;;4911741;28;45446;-77
2023/01/19 02:40:18;;;;;;;;;13.75;12.00;;;;;;;;4909207;28;45550;-77
2023/01/19 02:42:51;;;;;;;;;10.00;8.00;;;;;;;;4911082;28;45406;-78
2023/01/19 02:45:18;;;;;;;;;15.00;15.00;;;;;;;;4908136;28;45558;-77
2023/01/19 02:47:48;;;;;;;;;15.50;14.00;;;;;;;;4906884;28;45448;-77
2023/01/19 02:50:32;;;;;;;;;11.25;10.50;;;;;;;;4910013;28;45510;-77
2023/01/19 02:53:05;;;;;;;;;13.25;9.25;;;;;;;;4912242;28;45662;-79
2023/01/19 02:55:31;;;;;;;;;16.75;14.50;;;;;;;;4910138;28;47471;-78
2023/01/19 02:57:56;;;;;;;;;13.00;13.00;;;;;;;;4911139;28;45432;-78
2023/01/19 03:00:37;;;;;;;;;13.50;11.75;;;;;;;;4912757;28;45455;-78
2023/01/19 03:03:14;;;;;;;;;16.25;12.75;;;;;;;;4908875;28;45406;-78
2023/01/19 03:05:42;;;;;;;;;19.00;18.00;;;;;;;;4910058;28;45358;-78
2023/01/19 03:08:10;;;;;;;;;12.25;9.25;;;;;;;;4910811;28;45465;-77
2023/01/19 03:10:42;;;;;;;;;18.75;15.25;;;;;;;;4908197;28;45523;-77
2023/01/19 03:13:23;;;;;;;;;14.50;13.75;;;;;;;;4907378;28;45461;-78
2023/01/19 03:15:49;;;;;;;;;17.00;14.25;;;;;;;;4907358;28;45346;-77
2023/01/19 03:18:18;;;;;;;;;17.25;13.50;;;;;;;;4908539;28;45344;-77
2023/01/19 03:20:44;;;;;;;;;15.00;13.00;;;;;;;;4906523;28;45376;-78
2023/01/19 03:23:11;;;;;;;;;20.25;17.25;;;;;;;;4909460;28;45363;-78
2023/01/19 03:25:38;;;;;;;;;16.25;15.50;;;;;;;;4909012;28;47248;-78
2023/01/19 03:28:04;;;;;;;;;17.00;15.00;;;;;;;;4906128;28;45497;-79
2023/01/19 03:30:36;;;;;;;;;18.75;16.75;;;;;;;;4909084;28;45695;-78
2023/01/19 03:33:06;;;;;;;;;18.00;15.00;;;;;;;;4907884;28;45496;-78
2023/01/19 03:35:33;;;;;;;;;18.50;14.00;;;;;;;;4907463;28;46348;-79
2023/01/19 03:37:59;;;;;;;;;20.50;20.50;;;;;;;;4906828;28;45529;-79
2023/01/19 03:40:29;;;;;;;;;20.50;16.50;;;;;;;;4906955;28;45415;-78
2023/01/19 03:42:54;;;;;;;;;23.75;17.75;;;;;;;;4908473;28;45471;-77
2023/01/19 03:45:21;;;;;;;;;19.50;16.75;;;;;;;;4909702;28;47212;-77
2023/01/19 03:47:46;;;;;;;;;28.00;16.50;;;;;;;;4908776;28;45411;-77
2023/01/19 03:50:15;;;;;;;;;17.00;16.00;;;;;;;;4908587;28;45378;-77
2023/01/19 03:52:41;;;;;;;;;15.00;12.75;;;;;;;;4908527;28;45445;-77
2023/01/19 03:55:06;;;;;;;;;17.50;15.50;;;;;;;;4908494;28;47149;-77
2023/01/19 03:57:31;;;;;;;;;19.50;17.50;;;;;;;;4907378;28;45421;-78
2023/01/19 03:59:56;;;;;;;;;17.00;16.25;;;;;;;;4908271;28;45481;-77
2023/01/19 04:02:22;;;;;;;;;11.50;5.75;;;;;;;;4910181;28;45459;-77
2023/01/19 04:04:48;;;;;;;;;17.75;14.75;;;;;;;;4905724;28;45494;-78
2023/01/19 04:07:13;;;;;;;;;19.75;16.25;;;;;;;;4907573;28;45415;-78
2023/01/19 04:09:38;;;;;;;;;15.00;13.00;;;;;;;;4907761;28;45449;-77
2023/01/19 04:12:04;;;;;;;;;15.50;10.75;;;;;;;;4909155;28;45407;-78
2023/01/19 04:14:29;;;;;;;;;16.50;15.00;;;;;;;;4905910;28;45650;-77
2023/01/19 04:16:54;;;;;;;;;14.50;13.50;;;;;;;;4907372;28;45673;-78
2023/01/19 04:19:19;;;;;;;;;24.50;15.50;;;;;;;;4907335;28;45460;-78
2023/01/19 04:21:47;;;;;;;;;18.25;15.75;;;;;;;;4908020;28;45382;-77
2023/01/19 04:24:12;;;;;;;;;13.75;12.25;;;;;;;;4904749;28;46267;-77
2023/01/19 04:26:37;;;;;;;;;20.75;15.00;;;;;;;;4906178;28;45322;-77
2023/01/19 04:29:03;;;;;;;;;25.25;16.75;;;;;;;;4909552;28;45419;-77
2023/01/19 04:31:28;;;;;;;;;14.50;12.50;;;;;;;;4906146;28;45470;-77
2023/01/19 04:33:54;;;;;;;;;14.75;14.75;;;;;;;;4907998;28;45311;-78
2023/01/19 04:36:20;;;;;;;;;16.25;14.00;;;;;;;;4906658;28;46152;-78
2023/01/19 04:38:45;;;;;;;;;16.00;16.00;;;;;;;;4906544;28;45640;-77
2023/01/19 04:41:11;;;;;;;;;15.50;15.00;;;;;;;;4905561;28;45514;-78
2023/01/19 04:43:36;;;;;;;;;16.25;15.00;;;;;;;;4908608;28;47237;-77
2023/01/19 04:46:01;;;;;;;;;17.50;17.50;;;;;;;;4907220;28;45401;-78
2023/01/19 04:48:27;;;;;;;;;13.50;12.25;;;;;;;;4908453;28;45325;-78
2023/01/19 04:50:52;;;;;;;;;15.75;12.50;;;;;;;;4908661;28;45653;-78
2023/01/19 04:53:18;;;;;;;;;15.00;13.00;;;;;;;;4908072;28;47043;-78
2023/01/19 04:55:43;;;;;;;;;13.00;12.50;;;;;;;;4908753;28;45305;-78
2023/01/19 04:58:09;;;;;;;;;20.00;17.75;;;;;;;;4907907;28;45254;-78
2023/01/19 05:00:34;;;;;;;;;14.75;14.75;;;;;;;;4907494;28;45441;-76
2023/01/19 05:03:00;;;;;;;;;16.25;14.50;;;;;;;;4908467;28;45960;-77
2023/01/19 05:05:26;;;;;;;;;11.75;11.75;;;;;;;;4907247;28;45320;-78
2023/01/19 05:07:51;;;;;;;;;18.25;15.75;;;;;;;;4909555;28;45346;-78
2023/01/19 05:10:16;;;;;;;;;20.25;16.75;;;;;;;;4907180;28;45363;-78
2023/01/19 05:12:41;;;;;;;;;11.25;10.50;;;;;;;;4908907;28;45370;-78
2023/01/19 05:15:08;;;;;;;;;16.75;15.50;;;;;;;;4905996;28;45311;-77
2023/01/19 05:17:33;;;;;;;;;14.00;13.00;;;;;;;;4907653;28;45454;-78
2023/01/19 05:19:59;;;;;;;;;15.75;14.25;;;;;;;;4908521;28;45546;-78
2023/01/19 05:22:24;;;;;;;;;20.00;14.50;;;;;;;;4906849;28;45564;-78
2023/01/19 05:24:49;;;;;;;;;17.75;16.25;;;;;;;;4907678;28;45434;-79
2023/01/19 05:27:14;;;;;;;;;15.75;11.00;;;;;;;;4908478;28;45575;-78
2023/01/19 05:29:39;;;;;;;;;13.75;12.00;;;;;;;;4906683;28;45434;-78
2023/01/19 05:32:05;;;;;;;;;15.25;12.75;;;;;;;;4906621;28;45904;-78
2023/01/19 05:34:30;;;;;;;;;17.75;11.50;;;;;;;;4907673;28;45390;-78
2023/01/19 05:36:55;;;;;;;;;14.00;14.00;;;;;;;;4908377;28;45483;-78
2023/01/19 05:39:20;;;;;;;;;16.00;15.00;;;;;;;;4906330;28;45844;-81
2023/01/19 05:41:46;;;;;;;;;16.25;12.25;;;;;;;;4908365;28;45986;-79
2023/01/19 05:44:12;;;;;;;;;11.00;11.00;;;;;;;;4907815;28;45974;-78
2023/01/19 05:46:37;;;;;;;;;16.25;12.75;;;;;;;;4904700;28;45851;-79
2023/01/19 05:49:03;;;;;;;;;16.50;15.50;;;;;;;;4906796;28;45899;-79
2023/01/19 05:51:36;;;;;;;;;12.50;12.50;;;;;;;;4908575;28;46335;-79
2023/01/19 05:54:01;;;;;;;;;17.75;11.25;;;;;;;;4906502;28;45515;-79
2023/01/19 05:56:27;;;;;;;;;12.25;11.00;;;;;;;;4908647;28;45321;-79
2023/01/19 05:58:52;;;;;;;;;14.00;11.75;;;;;;;;4906762;28;45544;-79
2023/01/19 06:01:17;;;;;;;;;12.00;10.00;;;;;;;;4909044;28;45381;-79
2023/01/19 06:03:42;;;;;;;;;13.25;10.75;;;;;;;;4908066;28;45359;-78
2023/01/19 06:06:08;;;;;;;;;16.50;14.50;;;;;;;;4909520;28;45387;-76
2023/01/19 06:08:33;;;;;;;;;11.25;9.75;;;;;;;;4909072;28;45432;-76
2023/01/19 06:10:58;;;;;;;;;12.75;11.00;;;;;;;;4906988;28;45405;-77
2023/01/19 06:13:23;;;;;;;;;11.00;9.25;;;;;;;;4907068;28;45345;-79
2023/01/19 06:15:54;;;;;;;;;12.50;10.00;;;;;;;;4909881;28;45433;-79
2023/01/19 06:18:19;;;;;;;;;10.50;10.00;;;;;;;;4911112;28;45516;-79
2023/01/19 06:20:45;;;;;;;;;12.25;12.25;;;;;;;;4909885;28;47110;-79
2023/01/19 06:23:10;;;;;;;;;7.50;7.00;;;;;;;;4910963;28;45469;-79
2023/01/19 06:25:35;;;;;;;;;14.00;10.25;;;;;;;;4909878;28;45513;-77
2023/01/19 06:28:00;;;;;;;;;11.00;11.00;;;;;;;;4909855;28;45437;-80
2023/01/19 06:30:26;;;;;;;;;10.75;10.75;;;;;;;;4907921;28;45564;-79
2023/01/19 06:32:52;;;;;;;;;13.25;10.00;;;;;;;;4908766;28;46309;-79
2023/01/19 06:35:17;;;;;;;;;11.00;8.00;;;;;;;;4911438;28;45727;-79
2023/01/19 06:37:42;;;;;;;;;12.75;9.50;;;;;;;;4908665;28;45472;-80
2023/01/19 06:40:08;;;;;;;;;9.75;8.25;;;;;;;;4903813;28;45547;-79
2023/01/19 06:42:33;;;;;;;;;8.50;8.50;;;;;;;;4894991;29;45668;-79
2023/01/19 06:44:58;;;;;;;;;11.00;11.00;;;;;;;;4900339;28;45444;-76
2023/01/19 06:47:23;;;;;;;;;13.25;10.75;;;;;;;;4900396;29;45458;-74
2023/01/19 06:49:49;;;;;;;;;12.25;12.25;;;;;;;;4900403;28;45345;-75
2023/01/19 06:52:16;;;;;;;;;16.00;11.00;;;;;;;;4907205;28;45552;-76
2023/01/19 06:54:42;;;;;;;;;7.00;7.00;;;;;;;;4895149;29;45464;-75
2023/01/19 06:57:08;;;;;;;;;12.50;11.00;;;;;;;;4889436;29;45385;-75
2023/01/19 06:59:33;;;;;;;;;7.50;7.50;;;;;;;;4881504;29;46189;-75
2023/01/19 07:01:58;;;;;;;;;10.25;9.75;;;;;;;;4882199;29;45429;-75
2023/01/19 07:04:24;;;;;;;;;6.25;6.25;;;;;;;;4884004;29;45307;-75
2023/01/19 07:06:49;;;;;;;;;11.50;8.00;;;;;;;;4890097;29;45470;-74
2023/01/19 07:09:15;;;;;;;;;9.25;8.00;;;;;;;;4881635;29;47144;-74
2023/01/19 07:11:41;;;;;;;;;9.50;9.25;;;;;;;;4882015;29;45324;-75
2023/01/19 07:14:06;;;;;;;;;13.50;11.00;;;;;;;;4881903;28;45319;-75
2023/01/19 07:16:31;;;;;;;;;8.50;7.25;;;;;;;;4890102;29;45475;-75
2023/01/19 07:18:56;;;;;;;;;7.25;7.00;;;;;;;;4884592;28;46052;-75
2023/01/19 07:21:22;;;;;;;;;9.00;7.75;;;;;;;;4881755;29;45256;-75
2023/01/19 07:23:48;;;;;;;;;10.75;10.00;;;;;;;;4881262;29;45408;-74
2023/01/19 07:26:15;;;;;;;;;11.00;8.25;;;;;;;;4881077;29;45347;-76
2023/01/19 07:28:40;;;;;;;;;11.50;7.25;;;;;;;;4881473;29;46453;-75
2023/01/19 07:31:05;;;;;;;;;12.75;9.75;;;;;;;;4881515;29;45327;-76
2023/01/19 07:33:31;;;;;;;;;19.00;16.00;;;;;;;;4881522;29;45355;-74
2023/01/19 07:35:57;;;;;;;;;17.25;15.75;;;;;;;;4881128;29;45354;-74
2023/01/19 07:38:22;;;;;;;;;15.00;13.00;;;;;;;;4889268;29;46959;-74
2023/01/19 07:40:47;;;;;;;;;15.50;11.25;;;;;;;;4883552;28;45243;-74
2023/01/19 07:43:12;;;;;;;;;11.75;11.75;;;;;;;;4881427;29;45226;-75
2023/01/19 07:45:38;;;;;;;;;11.00;9.75;;;;;;;;4881173;28;45133;-76
2023/01/19 07:48:03;;;;;;;;;13.00;11.00;;;;;;;;4881115;29;45281;-74
2023/01/19 07:50:29;;;;;;;;;9.50;9.50;;;;;;;;4881165;29;45181;-76
2023/01/19 07:52:54;;;;;;;;;8.00;8.00;;;;;;;;4909862;28;45206;-76
2023/01/19 07:55:20;;;;;;;;;7.75;7.75;;;;;;;;4897435;28;45438;-77
2023/01/19 07:57:51;;;;;;;;;16.25;11.50;;;;;;;;4898029;29;46795;-75
2023/01/19 08:00:20;;;;;;;;;12.00;10.50;;;;;;;;4899509;28;45496;-75
2023/01/19 08:02:48;;;;;;;;;11.00;10.00;;;;;;;;4900255;28;45347;-75
2023/01/19 08:05:14;;;;;;;;;9.25;9.00;;;;;;;;4899311;28;45388;-75
2023/01/19 08:07:39;;;;;;;;;23.50;20.50;;;;;;;;4899597;29;46008;-77
2023/01/19 08:10:05;;;;;;;;;19.75;15.00;;;;;;;;4899676;29;45392;-77
2023/01/19 08:12:30;;;;;;;;;16.25;15.25;;;;;;;;4898632;29;45363;-77
2023/01/19 08:14:55;;;;;;;;;15.00;13.00;;;;;;;;4882878;29;45364;-77
2023/01/19 08:17:21;;;;;;;;;18.50;15.50;;;;;;;;4885466;28;45463;-76
2023/01/19 08:19:46;;;;;;;;;21.00;19.75;;;;;;;;4890131;28;45508;-77
2023/01/19 08:22:11;;;;;;;;;27.00;22.50;;;;;;;;4899132;28;45484;-77
2023/01/19 08:24:36;;;;;;;;;24.25;23.00;;;;;;;;4899343;28;45322;-77
2023/01/19 08:27:02;;;;;;;;;19.75;17.75;;;;;;;;4899432;28;45936;-77
2023/01/19 08:29:30;;;;;;;;;20.75;18.50;;;;;;;;4898966;28;45402;-77
2023/01/19 08:31:57;;;;;;;;;25.25;23.00;;;;;;;;4898379;29;45261;-78
2023/01/19 08:34:22;;;;;;;;;30.00;25.75;;;;;;;;4899219;28;45541;-77
2023/01/19 08:36:48;;;;;;;;;38.25;32.25;;;;;;;;4898314;28;46093;-77
2023/01/19 08:39:13;;;;;;;;;52.25;38.00;;;;;;;;4898948;28;45377;-77
2023/01/19 08:41:38;;;;;;;;;21.75;21.50;;;;;;;;4899669;28;45532;-76
2023/01/19 08:44:04;;;;;;;;;11.75;11.00;;;;;;;;4899579;28;45453;-76
2023/01/19 08:46:29;;;;;;;;;16.25;16.25;;;;;;;;4899092;29;46154;-76
2023/01/19 08:48:55;;;;;;;;;18.25;18.25;;;;;;;;4898915;28;45402;-76
2023/01/19 08:51:20;;;;;;;;;13.00;10.50;;;;;;;;4901967;28;45465;-76
2023/01/19 08:53:45;;;;;;;;;15.50;10.00;;;;;;;;4918468;28;45442;-76
2023/01/19 08:56:13;;;;;;;;;11.00;7.75;;;;;;;;4917918;28;45495;-76
2023/01/19 08:58:39;;;;;;;;;10.00;10.00;;;;;;;;4918364;28;45493;-76
2023/01/19 09:01:05;;;;;;;;;7.50;7.50;;;;;;;;4918110;28;45424;-76
2023/01/19 09:03:30;;;;;;;;;24.00;16.50;;;;;;;;4917508;28;45382;-75
2023/01/19 09:05:56;;;;;;;;;13.50;11.00;;;;;;;;4919486;28;46394;-77
2023/01/19 09:08:21;;;;;;;;;10.25;8.25;;;;;;;;4902496;28;45318;-75
2023/01/19 09:10:48;;;;;;;;;7.50;7.50;;;;;;;;4919649;28;45391;-77
2023/01/19 09:13:13;;;;;;;;;8.50;6.75;;;;;;;;4907858;28;45363;-77
2023/01/19 09:15:39;;;;;;;;;14.00;11.50;;;;;;;;4898582;28;46406;-77
2023/01/19 09:18:05;;;;;;;;;12.00;12.00;;;;;;;;4898685;29;45300;-77
2023/01/19 09:20:33;;;;;;;;;14.00;11.50;;;;;;;;4898727;28;45455;-77
2023/01/19 09:22:58;;;;;;;;;10.00;8.00;;;;;;;;4898176;28;45423;-76
2023/01/19 09:25:23;;;;;;;;;8.00;6.75;;;;;;;;4898472;29;46011;-73
2023/01/19 09:27:49;;;;;;;;;10.50;10.50;;;;;;;;4898272;28;45249;-77
2023/01/19 09:30:15;;;;;;;;;14.25;11.00;;;;;;;;4897178;29;45296;-77
2023/01/19 09:32:41;;;;;;;;;11.50;7.00;;;;;;;;4898557;29;45427;-77
2023/01/19 09:35:07;;;;;;;;;10.25;9.00;;;;;;;;4897051;28;45936;-77
2023/01/19 09:37:32;;;;;;;;;9.75;9.75;;;;;;;;4898655;28;45334;-77
2023/01/19 09:39:57;;;;;;;;;11.50;9.50;;;;;;;;4898612;28;45176;-78
2023/01/19 09:42:29;;;;;;;;;11.00;11.00;;;;;;;;4898568;28;45293;-77
2023/01/19 09:44:55;;;;;;;;;8.75;8.00;;;;;;;;4898479;29;46248;-76
2023/01/19 09:47:26;;;;;;;;;14.75;13.75;;;;;;;;4898263;28;45445;-77
2023/01/19 09:50:01;;;;;;;;;8.00;7.75;;;;;;;;4901296;28;45298;-77
2023/01/19 09:52:28;;;;;;;;;12.00;12.00;;;;;;;;4911457;28;45649;-76
2023/01/19 09:54:54;;;;;;;;;13.50;11.00;;;;;;;;4920474;28;46462;-76
2023/01/19 09:57:20;;;;;;;;;15.25;11.50;;;;;;;;4920525;28;45283;-76
2023/01/19 09:59:48;;;;;;;;;18.00;15.50;;;;;;;;4920705;28;45435;-77
2023/01/19 10:02:28;;;;;;;;;13.25;13.00;;;;;;;;4920609;28;45486;-77
2023/01/19 10:04:53;;;;;;;;;12.00;9.25;;;;;;;;4920519;28;46184;-76
2023/01/19 10:07:22;;;;;;;;;9.50;8.00;;;;;;;;4920670;28;45335;-76
2023/01/19 10:09:50;;;;;;;;;14.50;12.00;;;;;;;;4920875;28;45418;-77
2023/01/19 10:12:15;;;;;;;;;17.50;16.50;;;;;;;;4919699;28;45516;-76
2023/01/19 10:14:54;;;;;;;;;13.75;12.75;;;;;;;;4919340;28;47067;-77
2023/01/19 10:17:37;;;;;;;;;17.00;12.75;;;;;;;;4919901;28;45384;-77
2023/01/19 10:20:03;;;;;;;;;12.50;11.25;;;;;;;;4919934;28;45507;-77
2023/01/19 10:22:28;;;;;;;;;11.50;10.00;;;;;;;;4919851;28;45457;-76
2023/01/19 10:24:55;;;;;;;;;14.00;11.00;;;;;;;;4918992;28;46154;-77
2023/01/19 10:27:23;;;;;;;;;11.75;11.75;;;;;;;;4920462;28;45402;-76
2023/01/19 10:29:48;;;;;;;;;20.50;16.50;;;;;;;;4920125;28;45455;-75
2023/01/19 10:32:46;;;;;;;;;16.25;15.00;;;;;;;;4918815;28;45354;-75
2023/01/19 10:35:20;;;;;;;;;14.75;12.75;;;;;;;;4898539;29;46168;-76
2023/01/19 10:37:45;;;;;;;;;20.00;17.25;;;;;;;;4897958;29;45557;-76
2023/01/19 10:40:10;;;;;;;;;15.00;13.00;;;;;;;;4898764;29;45444;-77
2023/01/19 10:42:37;;;;;;;;;18.75;13.75;;;;;;;;4898819;29;45388;-77
2023/01/19 10:45:03;;;;;;;;;20.25;16.00;;;;;;;;4897827;29;46255;-76
2023/01/19 10:47:32;;;;;;;;;15.50;15.00;;;;;;;;4898375;29;45371;-76
2023/01/19 10:49:58;;;;;;;;;15.50;14.50;;;;;;;;4898836;29;45289;-76
2023/01/19 10:52:34;;;;;;;;;19.75;19.75;;;;;;;;4898218;29;45570;-76
2023/01/19 10:55:00;;;;;;;;;22.50;19.25;;;;;;;;4898431;29;45652;-77
2023/01/19 10:57:37;;;;;;;;;18.50;18.50;;;;;;;;4898099;29;45378;-76
2023/01/19 11:00:04;;;;;;;;;18.00;17.75;;;;;;;;4881521;29;45440;-76
2023/01/19 11:02:30;;;;;;;;;20.25;17.50;;;;;;;;4882993;29;45379;-78
2023/01/19 11:05:00;;;;;;;;;15.50;15.25;;;;;;;;4897998;29;46057;-77
2023/01/19 11:07:25;;;;;;;;;18.00;16.00;;;;;;;;4881959;29;45475;-77
2023/01/19 11:10:09;;;;;;;;;18.25;17.75;;;;;;;;4900366;28;45429;-76
2023/01/19 11:12:39;;;;;;;;;16.25;14.75;;;;;;;;4919323;28;45418;-78
2023/01/19 11:15:11;;;;;;;;;19.50;16.50;;;;;;;;4919536;28;45241;-76
2023/01/19 11:17:39;;;;;;;;;18.00;17.50;;;;;;;;4918384;28;45430;-78
2023/01/19 11:20:05;;;;;;;;;18.50;15.75;;;;;;;;4919648;28;45254;-76
2023/01/19 11:22:31;;;;;;;;;19.25;16.25;;;;;;;;4918496;28;45704;-77
2023/01/19 11:25:02;;;;;;;;;18.50;17.75;;;;;;;;4919454;28;46206;-77
2023/01/19 11:27:28;;;;;;;;;22.00;20.75;;;;;;;;4918780;28;45356;-78
2023/01/19 11:30:06;;;;;;;;;21.75;19.75;;;;;;;;4917959;28;45243;-76
2023/01/19 11:32:35;;;;;;;;;16.25;15.25;;;;;;;;4919875;28;45407;-77
2023/01/19 11:35:01;;;;;;;;;20.00;19.25;;;;;;;;4918846;28;47182;-76
2023/01/19 11:37:28;;;;;;;;;21.75;19.50;;;;;;;;4918786;28;45315;-77
2023/01/19 11:40:04;;;;;;;;;20.25;18.00;;;;;;;;4920046;28;45440;-77
2023/01/19 11:42:31;;;;;;;;;21.00;18.25;;;;;;;;4900113;28;45458;-76
2023/01/19 11:44:56;;;;;;;;;24.00;19.75;;;;;;;;4898364;29;47147;-73
2023/01/19 11:47:31;;;;;;;;;19.75;18.75;;;;;;;;4899700;28;45280;-76
2023/01/19 11:49:58;;;;;;;;;21.00;19.00;;;;;;;;4900376;28;45396;-77
2023/01/19 11:52:32;;;;;;;;;21.50;15.75;;;;;;;;4909637;28;45517;-78
2023/01/19 11:55:16;;;;;;;;;15.75;12.75;;;;;;;;4918472;28;45421;-78
2023/01/19 11:57:46;;;;;;;;;17.00;16.25;;;;;;;;4918647;28;45394;-78
2023/01/19 12:00:34;;;;;;;;;19.75;18.75;;;;;;;;4919425;28;45441;-79
2023/01/19 12:03:10;;;;;;;;;16.50;15.75;;;;;;;;4918454;28;45487;-77
2023/01/19 12:05:37;;;;;;;;;16.50;15.50;;;;;;;;4919390;28;45313;-77
2023/01/19 12:08:04;;;;;;;;;13.50;13.50;;;;;;;;4920663;28;45284;-77
2023/01/19 12:10:31;;;;;;;;;18.00;16.25;;;;;;;;4920832;28;45478;-76
2023/01/19 12:12:57;;;;;;;;;18.00;17.25;;;;;;;;4919622;28;45408;-76
2023/01/19 12:15:23;;;;;;;;;20.50;19.00;;;;;;;;4919071;28;45794;-77
2023/01/19 12:17:49;;;;;;;;;15.25;14.25;;;;;;;;4918384;28;45434;-76
2023/01/19 12:20:33;;;;;;;;;21.00;17.75;;;;;;;;4918544;28;45303;-76
2023/01/19 12:22:58;;;;;;;;;17.75;15.50;;;;;;;;4918362;28;45239;-75
2023/01/19 12:25:30;;;;;;;;;20.75;18.25;;;;;;;;4918234;28;45393;-75
2023/01/19 12:27:57;;;;;;;;;26.00;21.25;;;;;;;;4908225;28;45692;-76
2023/01/19 12:30:24;;;;;;;;;15.50;15.00;;;;;;;;4895393;28;45514;-76
2023/01/19 12:32:52;;;;;;;;;18.00;14.75;;;;;;;;4888808;29;45471;-76
2023/01/19 12:35:36;;;;;;;;;23.50;20.25;;;;;;;;4880372;29;46148;-76
2023/01/19 12:38:21;;;;;;;;;15.00;13.00;;;;;;;;4890774;29;45347;-76
2023/01/19 12:40:46;;;;;;;;;14.50;13.75;;;;;;;;4880399;29;45307;-75
2023/01/19 12:43:15;;;;;;;;;19.50;16.00;;;;;;;;4895820;28;45716;-76
2023/01/19 12:45:40;;;;;;;;;16.50;14.75;;;;;;;;4906854;28;46394;-75
2023/01/19 12:48:22;;;;;;;;;20.50;18.50;;;;;;;;4912120;28;45390;-77
2023/01/19 12:50:47;;;;;;;;;19.50;19.50;;;;;;;;4918266;28;45357;-76
2023/01/19 12:53:18;;;;;;;;;17.50;15.50;;;;;;;;4917943;28;45477;-76
2023/01/19 12:55:46;;;;;;;;;27.50;22.00;;;;;;;;4918059;28;46128;-77
2023/01/19 12:58:21;;;;;;;;;22.00;19.50;;;;;;;;4917601;28;45511;-77
2023/01/19 13:00:48;;;;;;;;;12.50;10.75;;;;;;;;4917818;28;45254;-77
2023/01/19 13:03:16;;;;;;;;;20.50;19.25;;;;;;;;4908079;28;45406;-77
2023/01/19 13:05:41;;;;;;;;;16.50;13.50;;;;;;;;4888132;29;45381;-77
2023/01/19 13:08:11;;;;;;;;;18.50;17.25;;;;;;;;4886380;28;45784;-76
2023/01/19 13:11:05;;;;;;;;;17.00;17.00;;;;;;;;4897700;28;45226;-77
2023/01/19 13:13:35;;;;;;;;;16.00;16.00;;;;;;;;4888408;28;45468;-77
2023/01/19 13:16:19;;;;;;;;;19.75;17.75;;;;;;;;4909181;28;47036;-77
2023/01/19 13:18:50;;;;;;;;;16.50;14.75;;;;;;;;4893522;28;45636;-77
2023/01/19 13:21:26;;;;;;;;;17.75;17.75;;;;;;;;4895265;29;45340;-77
2023/01/19 13:23:53;;;;;;;;;17.50;13.50;;;;;;;;4892298;28;45409;-76
2023/01/19 13:26:19;;;;;;;;;22.00;17.50;;;;;;;;4893552;28;47040;-76
2023/01/19 13:28:47;;;;;;;;;19.50;18.00;;;;;;;;4885911;28;45540;-76
2023/01/19 13:31:12;;;;;;;;;23.50;18.75;;;;;;;;4890190;28;45542;-77
2023/01/19 13:33:46;;;;;;;;;18.25;17.25;;;;;;;;4892802;29;45593;-77
2023/01/19 13:36:32;;;;;;;;;17.75;16.50;;;;;;;;4896748;29;45858;-76
2023/01/19 13:39:03;;;;;;;;;18.75;16.50;;;;;;;;4888084;29;45453;-77
2023/01/19 13:41:30;;;;;;;;;20.50;18.75;;;;;;;;4888786;28;45347;-76
2023/01/19 13:44:04;;;;;;;;;20.25;16.25;;;;;;;;4897335;28;45689;-77
2023/01/19 13:46:29;;;;;;;;;17.50;15.50;;;;;;;;4897143;28;45417;-75
2023/01/19 13:49:14;;;;;;;;;18.75;16.75;;;;;;;;4896419;28;45394;-77
2023/01/19 13:51:39;;;;;;;;;19.25;18.75;;;;;;;;4901468;28;45417;-77
2023/01/19 13:54:13;;;;;;;;;17.00;13.50;;;;;;;;4896842;29;45310;-76
2023/01/19 13:56:40;;;;;;;;;17.50;16.25;;;;;;;;4898170;28;46267;-78
2023/01/19 13:59:10;;;;;;;;;16.25;13.75;;;;;;;;4897640;29;45498;-76
2023/01/19 14:01:37;;;;;;;;;16.75;14.75;;;;;;;;4898276;28;45250;-78
2023/01/19 14:04:02;;;;;;;;;16.00;15.00;;;;;;;;4898252;28;45548;-74
2023/01/19 14:06:30;;;;;;;;;17.25;16.50;;;;;;;;4900363;28;46378;-75
2023/01/19 14:09:05;;;;;;;;;23.75;21.00;;;;;;;;4916453;28;45465;-76
2023/01/19 14:11:30;;;;;;;;;17.00;17.00;;;;;;;;4916558;28;45406;-77
2023/01/19 14:13:56;;;;;;;;;19.50;18.25;;;;;;;;4908895;28;45648;-76
2023/01/19 14:16:22;;;;;;;;;17.50;14.50;;;;;;;;4907876;28;46067;-75
2023/01/19 14:18:57;;;;;;;;;19.00;19.00;;;;;;;;4898563;28;45464;-74
2023/01/19 14:21:22;;;;;;;;;18.75;18.75;;;;;;;;4897084;28;45646;-78
2023/01/19 14:24:05;;;;;;;;;22.50;18.00;;;;;;;;4896752;29;45507;-78
2023/01/19 14:26:36;;;;;;;;;17.75;15.50;;;;;;;;4897739;28;45386;-77
2023/01/19 14:29:15;;;;;;;;;15.25;13.00;;;;;;;;4897447;28;45419;-80